createdAt,value
2022-12-05T00:01:49.094Z,1.78
2022-12-05T00:04:19.067Z,1.78
2022-12-05T00:06:48.865Z,1.86
2022-12-05T00:09:18.511Z,1.86
2022-12-05T00:11:48.309Z,1.84
2022-12-05T00:14:18.187Z,1.66
2022-12-05T00:16:48.144Z,1.90
2022-12-05T00:19:17.811Z,1.96
2022-12-05T00:21:47.611Z,1.85
2022-12-05T00:24:19.607Z,1.90
2022-12-05T00:26:51.487Z,1.97
2022-12-05T00:29:23.921Z,1.70
2022-12-05T00:31:52.976Z,1.69
2022-12-05T00:34:22.829Z,1.81
2022-12-05T00:36:52.694Z,1.79
2022-12-05T00:39:22.534Z,1.69
2022-12-05T00:41:52.693Z,1.73
2022-12-05T00:44:22.580Z,1.68
2022-12-05T00:46:52.373Z,1.93
2022-12-05T00:49:25.206Z,1.78
2022-12-05T00:51:55.147Z,1.95
2022-12-05T00:54:24.960Z,1.70
2022-12-05T00:56:56.213Z,2.02
2022-12-05T00:59:25.930Z,1.84
2022-12-05T01:01:55.786Z,2.00
2022-12-05T01:04:26.857Z,1.88
2022-12-05T01:06:58.819Z,2.01
2022-12-05T01:09:28.900Z,2.01
2022-12-05T01:11:58.683Z,1.76
2022-12-05T01:14:28.754Z,1.88
2022-12-05T01:16:58.659Z,1.77
2022-12-05T01:19:31.549Z,1.87
2022-12-05T01:22:01.819Z,1.73
2022-12-05T01:24:32.893Z,2.09
2022-12-05T01:27:02.678Z,2.04
2022-12-05T01:29:32.707Z,2.04
2022-12-05T01:32:04.132Z,1.87
2022-12-05T01:34:34.007Z,2.01
2022-12-05T01:37:03.820Z,1.88
2022-12-05T01:39:33.673Z,1.88
2022-12-05T01:42:05.450Z,1.84
2022-12-05T01:44:38.337Z,1.95
2022-12-05T01:47:09.803Z,1.98
2022-12-05T01:49:42.350Z,1.82
2022-12-05T01:52:17.932Z,1.82
2022-12-05T01:54:51.017Z,1.98
2022-12-05T01:57:20.960Z,2.14
2022-12-05T01:59:53.694Z,2.07
2022-12-05T02:02:23.680Z,1.92
2022-12-05T02:05:02.534Z,1.98
2022-12-05T02:07:33.749Z,1.93
2022-12-05T02:10:03.564Z,1.82
2022-12-05T02:12:33.943Z,1.82
2022-12-05T02:15:21.808Z,1.79
2022-12-05T02:18:16.096Z,1.84
2022-12-05T02:20:54.728Z,2.00
2022-12-05T02:23:39.335Z,1.96
2022-12-05T02:26:34.479Z,1.90
2022-12-05T02:29:22.349Z,1.90
2022-12-05T02:32:07.476Z,1.93
2022-12-05T02:34:40.335Z,1.93
2022-12-05T02:37:15.676Z,1.88
2022-12-05T02:40:10.883Z,1.89
2022-12-05T02:42:52.359Z,1.78
2022-12-05T02:45:23.008Z,1.87
2022-12-05T02:47:54.937Z,1.80
2022-12-05T02:50:33.744Z,1.87
2022-12-05T02:53:06.622Z,1.99
2022-12-05T02:55:37.747Z,2.00
2022-12-05T02:58:10.619Z,1.80
2022-12-05T03:00:42.878Z,1.81
2022-12-05T03:03:16.471Z,1.73
2022-12-05T03:05:58.147Z,1.89
2022-12-05T03:08:33.786Z,1.90
2022-12-05T03:11:04.878Z,1.87
2022-12-05T03:13:40.577Z,1.92
2022-12-05T03:16:13.169Z,1.86
2022-12-05T03:18:46.048Z,2.07
2022-12-05T03:21:33.487Z,1.85
2022-12-05T03:24:06.623Z,2.05
2022-12-05T03:26:39.467Z,1.87
2022-12-05T03:29:16.723Z,2.02
2022-12-05T03:31:56.493Z,2.02
2022-12-05T03:34:38.208Z,1.88
2022-12-05T03:37:11.518Z,1.90
2022-12-05T03:39:44.376Z,1.88
2022-12-05T03:42:16.597Z,1.83
2022-12-05T03:45:01.604Z,1.91
2022-12-05T03:47:40.028Z,1.82
2022-12-05T03:50:12.662Z,1.89
2022-12-05T03:53:18.643Z,1.87
2022-12-05T03:55:28.767Z,1.81
2022-12-05T03:58:05.042Z,1.81
2022-12-05T04:00:37.890Z,1.85
2022-12-05T04:03:17.842Z,1.95
2022-12-05T04:06:00.060Z,1.91
2022-12-05T04:08:39.222Z,1.82
2022-12-05T04:11:17.748Z,1.81
2022-12-05T04:13:53.341Z,1.76
2022-12-05T04:16:43.600Z,2.06
2022-12-05T04:19:57.105Z,1.90
2022-12-05T04:22:27.793Z,1.76
2022-12-05T04:25:18.353Z,1.84
2022-12-05T04:28:22.213Z,1.71
2022-12-05T04:31:06.941Z,1.81
2022-12-05T04:33:45.955Z,1.81
2022-12-05T04:36:18.795Z,2.05
2022-12-05T04:38:51.706Z,1.98
2022-12-05T04:41:24.334Z,1.85
2022-12-05T04:43:57.569Z,1.70
2022-12-05T04:46:27.497Z,1.75
2022-12-05T04:49:00.697Z,2.03
2022-12-05T04:51:34.492Z,1.99
2022-12-05T04:54:07.327Z,1.91
2022-12-05T04:56:39.340Z,1.98
2022-12-05T04:59:08.959Z,2.05
2022-12-05T05:01:44.871Z,1.87
2022-12-05T05:04:18.022Z,1.68
2022-12-05T05:06:48.284Z,1.96
2022-12-05T05:09:18.120Z,1.81
2022-12-05T05:11:48.308Z,1.87
2022-12-05T05:14:17.852Z,1.95
2022-12-05T05:16:48.509Z,1.91
2022-12-05T05:19:18.234Z,1.79
2022-12-05T05:21:48.781Z,1.85
2022-12-05T05:24:19.237Z,1.76
2022-12-05T05:26:55.519Z,1.67
2022-12-05T05:29:20.874Z,1.94
2022-12-05T05:31:50.682Z,1.73
2022-12-05T05:34:20.510Z,1.85
2022-12-05T05:36:54.584Z,1.76
2022-12-05T05:39:24.096Z,1.68
2022-12-05T05:41:53.883Z,1.97
2022-12-05T05:44:23.503Z,1.99
2022-12-05T05:46:53.417Z,1.82
2022-12-05T05:49:23.030Z,2.02
2022-12-05T05:51:52.878Z,2.14
2022-12-05T05:54:22.566Z,1.96
2022-12-05T05:56:52.385Z,1.90
2022-12-05T05:59:22.164Z,1.94
2022-12-05T06:01:52.060Z,2.14
2022-12-05T06:04:21.751Z,2.14
2022-12-05T06:06:51.673Z,1.94
2022-12-05T06:09:21.214Z,2.12
2022-12-05T06:11:51.045Z,1.90
2022-12-05T06:14:20.519Z,1.97
2022-12-05T06:16:50.379Z,1.93
2022-12-05T06:19:20.226Z,1.99
2022-12-05T06:21:52.877Z,1.95
2022-12-05T06:24:22.666Z,1.95
2022-12-05T06:26:52.602Z,2.00
2022-12-05T06:29:25.686Z,2.09
2022-12-05T06:31:52.971Z,1.78
2022-12-05T06:34:22.521Z,1.80
2022-12-05T06:36:52.329Z,1.68
2022-12-05T06:39:22.138Z,1.97
2022-12-05T06:41:52.028Z,1.75
2022-12-05T06:44:21.969Z,1.89
2022-12-05T06:46:51.860Z,1.85
2022-12-05T06:49:26.325Z,1.85
2022-12-05T06:51:56.803Z,1.91
2022-12-05T06:54:26.857Z,1.98
2022-12-05T06:56:57.050Z,1.83
2022-12-05T06:59:26.795Z,1.87
2022-12-05T07:01:56.713Z,2.02
2022-12-05T07:04:26.639Z,2.14
2022-12-05T07:06:57.295Z,1.94
2022-12-05T07:09:29.184Z,2.02
2022-12-05T07:11:59.073Z,1.96
2022-12-05T07:14:47.061Z,1.87
2022-12-05T07:17:00.585Z,1.82
2022-12-05T07:19:30.540Z,1.89
2022-12-05T07:22:00.527Z,1.89
2022-12-05T07:24:30.602Z,1.95
2022-12-05T07:27:00.428Z,1.85
2022-12-05T07:29:39.459Z,1.84
2022-12-05T07:32:09.791Z,1.94
2022-12-05T07:34:39.464Z,1.79
2022-12-05T07:37:09.334Z,1.82
2022-12-05T07:39:39.299Z,2.02
2022-12-05T07:42:09.102Z,2.04
2022-12-05T07:44:38.894Z,1.90
2022-12-05T07:47:08.488Z,1.97
2022-12-05T07:49:39.849Z,1.95
2022-12-05T07:52:10.039Z,1.88
2022-12-05T07:54:39.767Z,2.18
2022-12-05T07:57:09.680Z,2.08
2022-12-05T07:59:39.471Z,1.91
2022-12-05T08:02:11.303Z,1.93
2022-12-05T08:04:41.150Z,2.15
2022-12-05T08:07:12.195Z,2.02
2022-12-05T08:09:42.154Z,2.15
2022-12-05T08:12:11.985Z,2.07
2022-12-05T08:14:41.834Z,2.19
2022-12-05T08:17:11.715Z,2.11
2022-12-05T08:19:41.558Z,1.99
2022-12-05T08:22:11.216Z,2.16
2022-12-05T08:24:40.990Z,2.17
2022-12-05T08:27:10.885Z,2.10
2022-12-05T08:29:40.644Z,2.05
2022-12-05T08:32:10.463Z,2.36
2022-12-05T08:34:40.249Z,2.42
2022-12-05T08:37:10.067Z,2.42
2022-12-05T08:39:40.100Z,2.16
2022-12-05T08:42:09.890Z,2.45
2022-12-05T08:44:40.005Z,2.33
2022-12-05T08:47:09.671Z,2.35
2022-12-05T08:49:39.568Z,2.07
2022-12-05T08:52:09.091Z,2.23
2022-12-05T08:54:38.973Z,2.26
2022-12-05T08:57:08.827Z,2.50
2022-12-05T08:59:38.535Z,2.49
2022-12-05T09:02:11.172Z,2.39
2022-12-05T09:04:41.126Z,2.35
2022-12-05T09:07:10.689Z,2.60
2022-12-05T09:09:40.602Z,2.32
2022-12-05T09:12:10.422Z,2.34
2022-12-05T09:14:40.233Z,2.36
2022-12-05T09:17:10.021Z,2.36
2022-12-05T09:19:39.977Z,2.51
2022-12-05T09:22:09.492Z,2.63
2022-12-05T09:24:39.640Z,2.53
2022-12-05T09:27:09.136Z,2.48
2022-12-05T09:29:39.315Z,2.68
2022-12-05T09:32:10.845Z,2.69
2022-12-05T09:34:40.801Z,2.59
2022-12-05T09:37:38.105Z,2.57
2022-12-05T09:39:49.679Z,2.43
2022-12-05T09:42:25.122Z,2.48
2022-12-05T09:45:04.066Z,2.47
2022-12-05T09:47:39.716Z,2.63
2022-12-05T09:50:15.606Z,2.54
2022-12-05T09:52:48.426Z,2.80
2022-12-05T09:55:21.794Z,2.53
2022-12-05T09:57:57.327Z,2.66
2022-12-05T10:00:30.297Z,2.60
2022-12-05T10:03:18.123Z,2.51
2022-12-05T10:05:55.026Z,2.73
2022-12-05T10:08:43.762Z,2.63
2022-12-05T10:11:22.231Z,2.65
2022-12-05T10:14:28.148Z,2.74
2022-12-05T10:17:01.230Z,2.78
2022-12-05T10:19:37.040Z,2.92
2022-12-05T10:22:09.736Z,3.01
2022-12-05T10:24:42.569Z,3.03
2022-12-05T10:27:18.124Z,2.90
2022-12-05T10:30:06.302Z,2.94
2022-12-05T10:32:58.549Z,3.09
2022-12-05T10:35:40.381Z,3.07
2022-12-05T10:38:16.151Z,3.04
2022-12-05T10:40:49.000Z,3.04
2022-12-05T10:43:29.707Z,3.04
2022-12-05T10:46:01.828Z,2.90
2022-12-05T10:48:33.385Z,3.05
2022-12-05T10:51:03.476Z,2.96
2022-12-05T10:53:40.330Z,3.16
2022-12-05T10:56:46.365Z,3.00
2022-12-05T10:59:19.244Z,3.10
2022-12-05T11:01:53.577Z,3.10
2022-12-05T11:04:29.963Z,3.04
2022-12-05T11:07:05.585Z,3.10
2022-12-05T11:09:38.961Z,3.08
2022-12-05T11:12:11.719Z,3.19
2022-12-05T11:14:41.989Z,3.19
2022-12-05T11:17:15.733Z,3.18
2022-12-05T11:19:46.746Z,3.15
2022-12-05T11:22:19.329Z,3.25
2022-12-05T11:24:50.015Z,3.08
2022-12-05T11:27:22.907Z,3.14
2022-12-05T11:29:58.895Z,3.21
2022-12-05T11:32:31.769Z,3.22
2022-12-05T11:35:16.696Z,3.31
2022-12-05T11:38:04.846Z,3.40
2022-12-05T11:40:40.700Z,3.17
2022-12-05T11:43:32.970Z,3.34
2022-12-05T11:46:05.861Z,3.36
2022-12-05T11:48:43.708Z,3.20
2022-12-05T11:51:37.650Z,3.08
2022-12-05T11:55:02.823Z,3.08
2022-12-05T11:57:21.270Z,3.14
2022-12-05T11:59:54.399Z,3.22
2022-12-05T12:02:45.718Z,3.18
2022-12-05T12:05:33.499Z,3.17
2022-12-05T12:08:07.137Z,3.33
2022-12-05T12:10:54.956Z,3.28
2022-12-05T12:13:42.963Z,3.15
2022-12-05T12:16:45.295Z,3.36
2022-12-05T12:19:23.854Z,3.26
2022-12-05T12:22:06.639Z,3.26
2022-12-05T12:24:51.614Z,3.14
2022-12-05T12:27:46.163Z,3.35
2022-12-05T12:30:27.883Z,3.31
2022-12-05T12:32:58.168Z,3.60
2022-12-05T12:35:33.344Z,3.32
2022-12-05T12:38:15.167Z,3.31
2022-12-05T12:40:58.289Z,3.38
2022-12-05T12:43:53.257Z,3.37
2022-12-05T12:46:19.275Z,3.42
2022-12-05T12:48:58.007Z,3.69
2022-12-05T12:51:30.825Z,3.90
2022-12-05T12:54:40.394Z,3.78
2022-12-05T12:57:13.935Z,3.65
2022-12-05T12:59:58.802Z,3.73
2022-12-05T13:02:51.500Z,3.72
2022-12-05T13:05:42.292Z,3.71
2022-12-05T13:08:23.726Z,3.52
2022-12-05T13:10:54.546Z,3.52
2022-12-05T13:13:32.984Z,3.61
2022-12-05T13:16:07.837Z,3.65
2022-12-05T13:18:37.826Z,3.65
2022-12-05T13:21:09.943Z,3.87
2022-12-05T13:23:46.214Z,3.73
2022-12-05T13:26:17.005Z,3.74
2022-12-05T13:28:55.779Z,3.65
2022-12-05T13:31:45.777Z,3.80
2022-12-05T13:34:33.468Z,3.81
2022-12-05T13:37:30.703Z,3.80
2022-12-05T13:40:18.404Z,3.68
2022-12-05T13:42:49.017Z,3.65
2022-12-05T13:45:21.259Z,3.49
2022-12-05T13:47:57.065Z,3.56
2022-12-05T13:50:38.172Z,3.63
2022-12-05T13:53:27.566Z,3.63
2022-12-05T13:56:00.775Z,3.74
2022-12-05T13:58:36.527Z,3.67
2022-12-05T14:01:37.015Z,3.81
2022-12-05T14:04:10.070Z,3.87
2022-12-05T14:06:45.452Z,3.70
2022-12-05T14:09:29.773Z,3.68
2022-12-05T14:12:14.782Z,3.65
2022-12-05T14:15:04.026Z,3.93
2022-12-05T14:17:45.167Z,3.93
2022-12-05T14:20:26.606Z,3.75
2022-12-05T14:23:06.087Z,3.95
2022-12-05T14:26:14.002Z,3.96
2022-12-05T14:29:03.642Z,3.75
2022-12-05T14:31:52.959Z,3.69
2022-12-05T14:34:28.456Z,3.80
2022-12-05T14:37:17.978Z,3.65
2022-12-05T14:39:52.190Z,3.80
2022-12-05T14:42:39.976Z,3.82
2022-12-05T14:45:32.862Z,3.62
2022-12-05T14:48:18.586Z,3.55
2022-12-05T14:50:51.702Z,3.84
2022-12-05T14:53:33.205Z,4.04
2022-12-05T14:56:13.662Z,3.95
2022-12-05T14:59:02.171Z,3.71
2022-12-05T15:01:51.964Z,3.69
2022-12-05T15:04:45.933Z,3.69
2022-12-05T15:07:22.828Z,3.63
2022-12-05T15:10:13.136Z,3.62
2022-12-05T15:12:57.503Z,3.63
2022-12-05T15:15:45.959Z,3.59
2022-12-05T15:18:25.360Z,3.69
2022-12-05T15:21:00.928Z,3.69
2022-12-05T15:23:50.033Z,3.66
2022-12-05T15:26:48.428Z,3.68
2022-12-05T15:29:15.175Z,3.76
2022-12-05T15:31:59.886Z,4.07
2022-12-05T15:34:32.809Z,3.91
2022-12-05T15:37:11.433Z,3.77
2022-12-05T15:40:09.995Z,3.69
2022-12-05T15:42:42.971Z,3.69
2022-12-05T15:45:19.918Z,3.68
2022-12-05T15:47:52.417Z,3.67
2022-12-05T15:50:44.843Z,3.67
2022-12-05T15:53:33.798Z,3.65
2022-12-05T15:56:09.468Z,3.68
2022-12-05T15:58:57.351Z,3.67
2022-12-05T16:01:29.015Z,3.72
2022-12-05T16:04:09.296Z,3.69
2022-12-05T16:06:49.564Z,3.52
2022-12-05T16:09:24.576Z,3.52
2022-12-05T16:11:58.346Z,3.60
2022-12-05T16:14:58.843Z,3.63
2022-12-05T16:17:11.355Z,3.50
2022-12-05T16:19:41.224Z,3.56
2022-12-05T16:22:16.750Z,3.61
2022-12-05T16:25:04.689Z,3.60
2022-12-05T16:27:39.296Z,3.62
2022-12-05T16:30:15.011Z,3.65
2022-12-05T16:32:46.472Z,3.65
2022-12-05T16:35:37.488Z,3.58
2022-12-05T16:38:19.952Z,3.60
2022-12-05T16:40:55.886Z,3.70
2022-12-05T16:43:34.507Z,3.89
2022-12-05T16:46:17.237Z,3.71
2022-12-05T16:48:49.857Z,3.91
2022-12-05T16:51:22.000Z,3.86
2022-12-05T16:53:55.979Z,3.77
2022-12-05T16:56:33.890Z,3.74
2022-12-05T16:59:06.100Z,3.73
2022-12-05T17:01:39.195Z,3.69
2022-12-05T17:04:16.106Z,3.67
2022-12-05T17:06:45.975Z,3.58
2022-12-05T17:09:16.262Z,3.66
2022-12-05T17:11:48.952Z,3.61
2022-12-05T17:14:21.309Z,3.60
2022-12-05T17:16:51.179Z,3.60
2022-12-05T17:19:20.957Z,3.50
2022-12-05T17:21:50.975Z,3.47
2022-12-05T17:24:20.888Z,3.53
2022-12-05T17:26:50.686Z,3.73
2022-12-05T17:29:20.487Z,3.76
2022-12-05T17:31:50.426Z,3.65
2022-12-05T17:34:20.360Z,3.74
2022-12-05T17:36:51.442Z,3.78
2022-12-05T17:39:26.488Z,3.69
2022-12-05T17:41:58.042Z,3.73
2022-12-05T17:44:28.007Z,3.59
2022-12-05T17:47:00.718Z,3.59
2022-12-05T17:49:29.364Z,3.59
2022-12-05T17:54:32.897Z,3.57
2022-12-05T17:57:03.716Z,3.62
2022-12-05T17:59:33.107Z,3.55
2022-12-05T18:02:05.664Z,3.52
2022-12-05T18:04:35.404Z,3.57
2022-12-05T18:07:05.272Z,3.43
2022-12-05T18:09:35.180Z,3.55
2022-12-05T18:12:05.198Z,3.56
2022-12-05T18:14:36.336Z,3.56
2022-12-05T18:17:08.449Z,3.56
2022-12-05T18:19:39.393Z,3.53
2022-12-05T18:22:10.161Z,3.52
2022-12-05T18:24:40.018Z,3.55
2022-12-05T18:27:12.000Z,3.63
2022-12-05T18:29:41.860Z,3.46
2022-12-05T18:32:12.277Z,3.54
2022-12-05T18:34:41.889Z,3.54
2022-12-05T18:37:11.602Z,3.55
2022-12-05T18:39:41.440Z,3.56
2022-12-05T18:42:14.949Z,3.56
2022-12-05T18:44:42.632Z,3.57
2022-12-05T18:47:12.409Z,3.57
2022-12-05T18:49:42.761Z,3.56
2022-12-05T18:52:12.819Z,3.58
2022-12-05T18:55:03.029Z,3.56
2022-12-05T18:57:20.693Z,3.55
2022-12-05T18:59:51.995Z,3.56
2022-12-05T19:02:21.808Z,3.57
2022-12-05T19:04:53.576Z,3.57
2022-12-05T19:07:24.129Z,3.52
2022-12-05T19:09:54.189Z,3.47
2022-12-05T19:12:24.058Z,3.49
2022-12-05T19:14:54.961Z,3.46
2022-12-05T19:17:25.032Z,3.46
2022-12-05T19:19:58.670Z,3.46
2022-12-05T19:22:30.308Z,3.47
2022-12-05T19:25:03.785Z,3.46
2022-12-05T19:27:37.068Z,3.47
2022-12-05T19:30:10.097Z,3.47
2022-12-05T19:32:40.917Z,3.43
2022-12-05T19:35:10.809Z,3.47
2022-12-05T19:37:42.785Z,3.61
2022-12-05T19:40:12.983Z,3.50
2022-12-05T19:42:43.498Z,3.44
2022-12-05T19:45:17.783Z,3.47
2022-12-05T19:47:44.861Z,3.47
2022-12-05T19:50:14.974Z,3.54
2022-12-05T19:52:46.668Z,3.63
2022-12-05T19:55:16.626Z,3.53
2022-12-05T19:57:47.384Z,3.51
2022-12-05T20:00:19.115Z,3.52
2022-12-05T20:02:50.465Z,3.51
2022-12-05T20:05:20.429Z,3.54
2022-12-05T20:07:50.334Z,3.55
2022-12-05T20:10:20.466Z,3.41
2022-12-05T20:12:50.182Z,3.44
2022-12-05T20:15:20.057Z,3.49
2022-12-05T20:17:53.155Z,3.49
2022-12-05T20:20:21.386Z,3.44
2022-12-05T20:22:51.308Z,3.47
2022-12-05T20:25:21.645Z,3.46
2022-12-05T20:27:53.493Z,3.53
2022-12-05T20:30:23.022Z,3.47
2022-12-05T20:32:52.901Z,3.49
2022-12-05T20:35:24.358Z,3.49
2022-12-05T20:37:55.177Z,3.47
2022-12-05T20:40:25.614Z,3.48
2022-12-05T20:42:57.286Z,3.48
2022-12-05T20:45:27.100Z,3.49
2022-12-05T20:47:57.000Z,3.63
2022-12-05T20:50:26.804Z,3.62
2022-12-05T20:52:56.963Z,3.48
2022-12-05T20:55:26.773Z,3.57
2022-12-05T20:58:00.152Z,3.48
2022-12-05T21:00:29.097Z,3.45
2022-12-05T21:02:59.882Z,3.51
2022-12-05T21:05:31.902Z,3.51
2022-12-05T21:08:01.908Z,3.56
2022-12-05T21:10:31.909Z,3.46
2022-12-05T21:13:03.626Z,3.41
2022-12-05T21:15:33.524Z,3.28
2022-12-05T21:18:04.192Z,3.34
2022-12-05T21:20:38.909Z,3.38
2022-12-05T21:23:08.023Z,3.40
2022-12-05T21:25:38.740Z,3.34
2022-12-05T21:28:10.477Z,3.33
2022-12-05T21:30:44.383Z,3.31
2022-12-05T21:33:14.387Z,3.36
2022-12-05T21:35:56.727Z,3.35
2022-12-05T21:38:26.643Z,3.34
2022-12-05T21:40:56.494Z,3.34
2022-12-05T21:43:26.428Z,3.33
2022-12-05T21:45:56.918Z,3.24
2022-12-05T21:48:29.814Z,3.21
2022-12-05T21:51:00.972Z,3.32
2022-12-05T21:53:36.798Z,3.25
2022-12-05T21:56:11.439Z,3.29
2022-12-05T21:58:42.754Z,3.32
2022-12-05T22:01:27.700Z,3.30
2022-12-05T22:03:59.784Z,3.37
2022-12-05T22:06:33.234Z,3.40
2022-12-05T22:09:04.365Z,3.35
2022-12-05T22:11:35.364Z,3.40
2022-12-05T22:14:05.194Z,3.31
2022-12-05T22:16:35.411Z,3.31
2022-12-05T22:19:07.416Z,3.31
2022-12-05T22:21:37.409Z,3.34
2022-12-05T22:24:09.279Z,3.37
2022-12-05T22:26:39.478Z,3.29
2022-12-05T22:29:09.058Z,3.22
2022-12-05T22:31:38.979Z,3.26
2022-12-05T22:34:09.708Z,3.27
2022-12-05T22:36:39.639Z,3.22
2022-12-05T22:39:10.935Z,3.24
2022-12-05T22:41:40.524Z,3.27
2022-12-05T22:44:10.101Z,3.16
2022-12-05T22:46:40.250Z,3.18
2022-12-05T22:49:11.685Z,3.19
2022-12-05T22:51:41.762Z,3.15
2022-12-05T22:54:11.279Z,3.22
2022-12-05T22:56:41.125Z,3.26
2022-12-05T22:59:14.956Z,3.27
2022-12-05T23:01:45.129Z,3.26
2022-12-05T23:04:14.845Z,3.28
2022-12-05T23:06:44.741Z,3.36
2022-12-05T23:09:14.591Z,3.35
2022-12-05T23:11:44.416Z,3.30
2022-12-05T23:14:14.220Z,3.32
2022-12-05T23:16:44.141Z,3.34
2022-12-05T23:19:13.738Z,3.29
2022-12-05T23:21:43.622Z,3.28
2022-12-05T23:24:14.274Z,3.20
2022-12-05T23:26:46.280Z,3.20
2022-12-05T23:29:16.552Z,3.28
2022-12-05T23:31:46.739Z,3.28
2022-12-05T23:34:16.500Z,3.27
2022-12-05T23:36:46.330Z,3.27
2022-12-05T23:39:16.421Z,3.27
2022-12-05T23:41:46.736Z,3.27
2022-12-05T23:44:16.376Z,3.26
2022-12-05T23:46:46.418Z,3.26
2022-12-05T23:49:15.973Z,3.26
2022-12-05T23:51:45.810Z,3.27
2022-12-05T23:54:17.051Z,3.25
2022-12-05T23:56:47.359Z,3.26
2022-12-05T23:59:17.157Z,3.29
